Raisin, California
Current Conditions -  °F | °C
As of 12:53 PM on Sunday 23 Nov 2014 (Local Time) from KFAT Reporting Station
Overcast Overcast  
Wind Chill: 13°   Ceiling: 1800
Heat Index: 13°   Visibility: 10mi
Dew Point:   Wind: 7mph
Humidity: 75%   Direction: 90°E
Pressure: 30.31"   Gusts: NA
Location:  36.6°N, 119.9°W
Report Text: KFAT 232053Z 09006KT 10SM OVC018 13/09 A3031 RMK AO2 SLP262 T01330089 58010
Loading
Personal Weather Stations






























Interactive Weather Map New forecast layout! Learn more

10-Day Weather Forecast

Advertisements
Track Severe Weather on mobile